createdAt,value
2022-12-11T00:01:10.498Z,98113.09
2022-12-11T00:03:39.244Z,98092.59
2022-12-11T00:06:08.752Z,98097.09
2022-12-11T00:08:38.922Z,98100.75
2022-12-11T00:11:09.557Z,98092.03
2022-12-11T00:13:37.632Z,98080.69
2022-12-11T00:16:06.098Z,98085.84
2022-12-11T00:18:35.555Z,98088.69
2022-12-11T00:21:05.870Z,98083.34
2022-12-11T00:23:36.075Z,98076.31
2022-12-11T00:26:09.713Z,98080.81
2022-12-11T00:28:37.855Z,98077.31
2022-12-11T00:31:06.744Z,98069.63
2022-12-11T00:33:34.942Z,98080.28
2022-12-11T00:36:03.956Z,98086.63
2022-12-11T00:38:32.133Z,98082.28
2022-12-11T00:41:00.583Z,98078.63
2022-12-11T00:43:30.379Z,98073.41
2022-12-11T00:45:59.625Z,98075.38
2022-12-11T00:48:27.724Z,98067.53
2022-12-11T00:50:55.801Z,98073.03
2022-12-11T00:53:23.876Z,98076.53
2022-12-11T00:55:52.034Z,98077.50
2022-12-11T00:58:20.042Z,98082.84
2022-12-11T01:00:50.070Z,98076.81
2022-12-11T01:03:18.856Z,98082.31
2022-12-11T01:05:54.509Z,98079.66
2022-12-11T01:08:25.773Z,98069.94
2022-12-11T01:11:01.910Z,98072.47
2022-12-11T01:13:29.953Z,98077.94
2022-12-11T01:15:59.721Z,98081.44
2022-12-11T01:18:28.766Z,98087.75
2022-12-11T01:20:56.826Z,98089.75
2022-12-11T01:23:24.905Z,98094.38
2022-12-11T01:25:52.981Z,98096.38
2022-12-11T01:28:21.124Z,98086.69
2022-12-11T01:30:49.280Z,98093.00
2022-12-11T01:33:18.732Z,98085.97
2022-12-11T01:35:46.772Z,98105.63
2022-12-11T01:38:14.909Z,98107.59
2022-12-11T01:40:53.419Z,98099.59
2022-12-11T01:43:21.973Z,98085.59
2022-12-11T01:45:50.314Z,98095.56
2022-12-11T01:48:26.726Z,98088.56
2022-12-11T01:50:57.272Z,98093.16
2022-12-11T01:53:30.308Z,98111.81
2022-12-11T01:56:00.231Z,98102.28
2022-12-11T01:58:32.646Z,98108.63
2022-12-11T02:01:02.446Z,98119.44
2022-12-11T02:03:31.988Z,98118.59
2022-12-11T02:06:00.830Z,98110.75
2022-12-11T02:08:29.329Z,98118.00
2022-12-11T02:11:07.420Z,98116.34
2022-12-11T02:13:43.536Z,98114.81
2022-12-11T02:16:20.674Z,98099.81
2022-12-11T02:18:56.984Z,98102.63
2022-12-11T02:21:28.255Z,98120.59
2022-12-11T02:24:12.612Z,98116.34
2022-12-11T02:27:12.147Z,98113.84
2022-12-11T02:29:50.220Z,98115.81
2022-12-11T02:32:23.960Z,98106.13
2022-12-11T02:34:59.216Z,98102.78
2022-12-11T02:37:30.804Z,98116.94
2022-12-11T02:39:59.817Z,98102.06
2022-12-11T02:42:33.457Z,98100.38
2022-12-11T02:45:04.751Z,98112.03
2022-12-11T02:47:35.135Z,98099.69
2022-12-11T02:50:09.862Z,98097.03
2022-12-11T02:52:39.130Z,98100.00
2022-12-11T02:55:10.156Z,98094.50
2022-12-11T02:57:50.651Z,98089.47
2022-12-11T03:00:21.865Z,98089.47
2022-12-11T03:02:49.965Z,98095.19
2022-12-11T03:05:18.163Z,98097.00
2022-12-11T03:07:46.703Z,98097.84
2022-12-11T03:10:18.948Z,98099.66
2022-12-11T03:12:53.388Z,98085.50
2022-12-11T03:15:30.305Z,98074.31
2022-12-11T03:18:04.938Z,98079.75
2022-12-11T03:20:40.004Z,98087.75
2022-12-11T03:23:19.305Z,98083.41
2022-12-11T03:25:54.671Z,98083.56
2022-12-11T03:28:28.398Z,98084.53
2022-12-11T03:30:59.650Z,98089.19
2022-12-11T03:33:34.798Z,98086.66
2022-12-11T03:36:07.400Z,98078.81
2022-12-11T03:38:40.795Z,98085.25
2022-12-11T03:41:10.139Z,98093.09
2022-12-11T03:43:40.008Z,98076.25
2022-12-11T03:46:12.661Z,98083.56
2022-12-11T03:48:43.570Z,98087.34
2022-12-11T03:51:12.209Z,98102.34
2022-12-11T03:53:40.882Z,98082.44
2022-12-11T03:56:11.278Z,98083.00
2022-12-11T03:58:53.325Z,98076.16
2022-12-11T04:01:22.916Z,98081.47
2022-12-11T04:03:51.155Z,98087.75
2022-12-11T04:06:19.508Z,98094.06
2022-12-11T04:08:47.576Z,98087.91
2022-12-11T04:11:33.211Z,98086.38
2022-12-11T04:14:19.206Z,98100.53
2022-12-11T04:16:48.660Z,98104.47
2022-12-11T04:19:34.349Z,98096.47
2022-12-11T04:22:20.266Z,98094.78
2022-12-11T04:24:50.181Z,98099.41
2022-12-11T04:27:39.284Z,98107.53
2022-12-11T04:30:10.359Z,98119.16
2022-12-11T04:32:40.035Z,98117.47
2022-12-11T04:35:09.846Z,98116.66
2022-12-11T04:37:38.938Z,98124.91
2022-12-11T04:40:10.057Z,98119.44
2022-12-11T04:42:38.093Z,98133.75
2022-12-11T04:45:08.374Z,98127.69
2022-12-11T04:47:37.173Z,98136.56
2022-12-11T04:50:08.890Z,98149.00
2022-12-11T04:52:37.067Z,98154.59
2022-12-11T04:55:05.746Z,98155.59
2022-12-11T04:57:33.831Z,98154.88
2022-12-11T05:00:04.590Z,98161.19
2022-12-11T05:02:36.640Z,98152.50
2022-12-11T05:05:09.924Z,98176.31
2022-12-11T05:07:38.733Z,98167.59
2022-12-11T05:10:07.943Z,98183.59
2022-12-11T05:12:36.033Z,98169.72
2022-12-11T05:15:04.279Z,98191.16
2022-12-11T05:17:32.459Z,98181.34
2022-12-11T05:20:00.789Z,98181.34
2022-12-11T05:22:31.837Z,98176.16
2022-12-11T05:25:00.081Z,98184.44
2022-12-11T05:27:28.329Z,98187.94
2022-12-11T05:29:59.526Z,98173.34
2022-12-11T05:32:27.872Z,98186.22
2022-12-11T05:34:55.928Z,98190.84
2022-12-11T05:37:24.055Z,98177.81
2022-12-11T05:39:53.549Z,98184.81
2022-12-11T05:42:25.548Z,98181.31
2022-12-11T05:44:57.106Z,98180.47
2022-12-11T05:47:25.848Z,98187.75
2022-12-11T05:49:53.956Z,98189.72
2022-12-11T05:52:22.159Z,98173.75
2022-12-11T05:54:50.441Z,98167.56
2022-12-11T05:57:19.924Z,98182.69
2022-12-11T05:59:48.148Z,98191.66
2022-12-11T06:02:16.303Z,98187.44
2022-12-11T06:04:44.404Z,98205.09
2022-12-11T06:07:12.880Z,98198.94
2022-12-11T06:09:40.894Z,98199.22
2022-12-11T06:12:09.028Z,98214.19
2022-12-11T06:14:38.724Z,98217.00
2022-12-11T06:17:07.464Z,98234.78
2022-12-11T06:19:37.091Z,98223.16
2022-12-11T06:22:05.826Z,98233.09
2022-12-11T06:24:34.080Z,98239.25
2022-12-11T06:27:02.076Z,98243.84
2022-12-11T06:29:30.136Z,98254.63
2022-12-11T06:31:59.888Z,98264.72
2022-12-11T06:34:28.327Z,98265.56
2022-12-11T06:36:56.456Z,98263.88
2022-12-11T06:39:24.504Z,98260.03
2022-12-11T06:41:52.542Z,98271.16
2022-12-11T06:44:20.547Z,98273.06
2022-12-11T06:46:48.590Z,98276.72
2022-12-11T06:49:18.008Z,98290.97
2022-12-11T06:51:46.069Z,98307.78
2022-12-11T06:54:14.103Z,98295.47
2022-12-11T06:56:42.169Z,98300.91
2022-12-11T06:59:13.059Z,98314.34
2022-12-11T07:01:41.942Z,98316.19
2022-12-11T07:04:10.742Z,98310.00
2022-12-11T07:06:40.227Z,98319.81
2022-12-11T07:09:08.399Z,98318.13
2022-12-11T07:11:36.456Z,98323.44
2022-12-11T07:14:04.886Z,98311.09
2022-12-11T07:16:32.950Z,98313.06
2022-12-11T07:19:01.446Z,98329.84
2022-12-11T07:21:29.759Z,98331.53
2022-12-11T07:24:00.192Z,98328.03
2022-12-11T07:26:28.458Z,98336.84
2022-12-11T07:28:58.282Z,98342.31
2022-12-11T07:31:28.604Z,98344.97
2022-12-11T07:33:58.539Z,98350.28
2022-12-11T07:36:27.571Z,98350.28
2022-12-11T07:38:56.512Z,98366.25
2022-12-11T07:41:27.796Z,98356.44
2022-12-11T07:43:56.331Z,98367.09
2022-12-11T07:46:26.321Z,98368.06
2022-12-11T07:48:54.937Z,98368.91
2022-12-11T07:51:29.667Z,98368.91
2022-12-11T07:53:59.549Z,98384.16
2022-12-11T07:56:29.994Z,98380.53
2022-12-11T07:59:00.543Z,98386.81
2022-12-11T08:01:30.353Z,98400.13
2022-12-11T08:03:58.544Z,98407.13
2022-12-11T08:06:29.911Z,98403.75
2022-12-11T08:08:58.821Z,98416.06
2022-12-11T08:11:29.188Z,98412.72
2022-12-11T08:13:57.269Z,98412.56
2022-12-11T08:16:25.425Z,98421.66
2022-12-11T08:18:54.244Z,98424.19
2022-12-11T08:21:24.412Z,98422.50
2022-12-11T08:23:54.082Z,98428.66
2022-12-11T08:26:25.069Z,98428.94
2022-12-11T08:28:54.702Z,98427.81
2022-12-11T08:31:23.877Z,98434.97
2022-12-11T08:33:52.915Z,98443.78
2022-12-11T08:36:22.966Z,98442.09
2022-12-11T08:38:51.961Z,98433.28
2022-12-11T08:41:22.111Z,98432.31
2022-12-11T08:43:52.866Z,98448.38
2022-12-11T08:46:24.021Z,98454.56
2022-12-11T08:48:52.405Z,98461.69
2022-12-11T08:51:22.792Z,98471.47
2022-12-11T08:53:51.325Z,98466.25
2022-12-11T08:56:21.569Z,98475.09
2022-12-11T08:58:49.582Z,98481.25
2022-12-11T09:01:21.570Z,98479.56
2022-12-11T09:03:52.302Z,98480.78
2022-12-11T09:06:22.775Z,98491.31
2022-12-11T09:08:53.309Z,98488.63
2022-12-11T09:11:23.955Z,98501.94
2022-12-11T09:13:52.188Z,98493.25
2022-12-11T09:16:22.336Z,98512.56
2022-12-11T09:18:53.513Z,98504.72
2022-12-11T09:21:23.597Z,98494.22
2022-12-11T09:23:54.602Z,98489.88
2022-12-11T09:26:23.241Z,98489.22
2022-12-11T09:28:53.240Z,98477.34
2022-12-11T09:31:24.225Z,98494.34
2022-12-11T09:33:56.715Z,98496.69
2022-12-11T09:36:25.202Z,98492.44
2022-12-11T09:38:53.692Z,98496.81
2022-12-11T09:41:36.395Z,98497.53
2022-12-11T09:44:20.647Z,98505.66
2022-12-11T09:46:49.727Z,98500.00
2022-12-11T09:49:26.689Z,98500.50
2022-12-11T09:52:05.019Z,98494.88
2022-12-11T09:54:33.516Z,98499.22
2022-12-11T09:57:15.173Z,98489.25
2022-12-11T10:00:04.882Z,98477.50
2022-12-11T10:02:44.812Z,98495.47
2022-12-11T10:05:22.528Z,98480.66
2022-12-11T10:07:56.340Z,98468.53
2022-12-11T10:10:37.015Z,98469.50
2022-12-11T10:13:13.053Z,98472.53
2022-12-11T10:15:45.121Z,98465.94
2022-12-11T10:18:17.237Z,98480.34
2022-12-11T10:20:48.048Z,98499.00
2022-12-11T10:23:19.903Z,98498.28
2022-12-11T10:25:54.005Z,98492.53
2022-12-11T10:28:22.403Z,98484.06
2022-12-11T10:30:58.740Z,98495.13
2022-12-11T10:33:35.766Z,98509.53
2022-12-11T10:36:08.906Z,98509.94
2022-12-11T10:38:43.528Z,98509.34
2022-12-11T10:41:13.885Z,98498.94
2022-12-11T10:43:44.408Z,98506.22
2022-12-11T10:46:17.964Z,98512.66
2022-12-11T10:48:50.431Z,98523.44
2022-12-11T10:51:20.741Z,98534.34
2022-12-11T10:53:52.259Z,98538.44
2022-12-11T10:56:27.363Z,98541.94
2022-12-11T10:58:57.896Z,98537.69
2022-12-11T11:01:28.586Z,98533.34
2022-12-11T11:04:01.099Z,98529.13
2022-12-11T11:06:30.547Z,98530.53
2022-12-11T11:09:00.470Z,98543.94
2022-12-11T11:11:33.904Z,98528.50
2022-12-11T11:14:16.794Z,98535.22
2022-12-11T11:16:47.711Z,98530.75
2022-12-11T11:19:20.629Z,98529.06
2022-12-11T11:21:54.006Z,98521.34
2022-12-11T11:24:31.088Z,98524.97
2022-12-11T11:27:14.692Z,98517.97
2022-12-11T11:29:50.263Z,98521.56
2022-12-11T11:32:25.739Z,98512.66
2022-12-11T11:34:53.739Z,98533.94
2022-12-11T11:37:32.986Z,98535.88
2022-12-11T11:40:09.346Z,98535.75
2022-12-11T11:42:46.975Z,98543.75
2022-12-11T11:45:21.093Z,98550.84
2022-12-11T11:47:57.074Z,98550.84
2022-12-11T11:50:32.997Z,98558.00
2022-12-11T11:53:18.499Z,98559.59
2022-12-11T11:55:55.815Z,98565.88
2022-12-11T11:58:28.097Z,98566.84
2022-12-11T12:00:56.432Z,98553.78
2022-12-11T12:03:26.148Z,98567.09
2022-12-11T12:05:58.795Z,98572.53
2022-12-11T12:08:42.726Z,98581.13
2022-12-11T12:11:21.827Z,98580.28
2022-12-11T12:14:00.775Z,98585.59
2022-12-11T12:16:52.584Z,98583.06
2022-12-11T12:19:39.346Z,98590.91
2022-12-11T12:22:17.598Z,98596.25
2022-12-11T12:24:56.274Z,98590.06
2022-12-11T12:27:51.634Z,98600.72
2022-12-11T12:30:23.396Z,98586.56
2022-12-11T12:33:05.343Z,98595.41
2022-12-11T12:35:37.676Z,98590.06
2022-12-11T12:38:12.294Z,98584.75
2022-12-11T12:40:56.783Z,98585.72
2022-12-11T12:43:46.233Z,98571.44
2022-12-11T12:46:26.957Z,98583.91
2022-12-11T12:48:58.239Z,98579.44
2022-12-11T12:51:27.734Z,98592.72
2022-12-11T12:53:59.201Z,98600.72
2022-12-11T12:56:33.223Z,98599.88
2022-12-11T12:59:01.407Z,98610.53
2022-12-11T13:01:32.437Z,98615.00
2022-12-11T13:04:03.169Z,98623.69
2022-12-11T13:06:35.277Z,98632.66
2022-12-11T13:09:18.362Z,98645.97
2022-12-11T13:11:52.108Z,98633.75
2022-12-11T13:14:31.140Z,98648.63
2022-12-11T13:17:25.495Z,98650.44
2022-12-11T13:20:12.572Z,98653.09
2022-12-11T13:22:55.819Z,98652.25
2022-12-11T13:25:28.985Z,98659.28
2022-12-11T13:28:07.547Z,98659.28
2022-12-11T13:30:36.471Z,98652.25
2022-12-11T13:33:07.199Z,98655.78
2022-12-11T13:35:36.647Z,98663.88
2022-12-11T13:38:08.579Z,98667.38
2022-12-11T13:40:41.092Z,98676.22
2022-12-11T13:43:19.459Z,98678.88
2022-12-11T13:45:50.946Z,98684.22
2022-12-11T13:48:24.426Z,98689.66
2022-12-11T13:50:54.268Z,98688.09
2022-12-11T13:53:22.952Z,98677.31
2022-12-11T13:55:58.552Z,98676.47
2022-12-11T13:58:29.565Z,98680.81
2022-12-11T14:01:07.643Z,98682.78
2022-12-11T14:03:37.363Z,98686.28
2022-12-11T14:06:05.772Z,98694.25
2022-12-11T14:08:39.474Z,98698.75
2022-12-11T14:11:07.693Z,98705.03
2022-12-11T14:13:40.825Z,98719.06
2022-12-11T14:16:09.340Z,98721.72
2022-12-11T14:18:38.107Z,98715.69
2022-12-11T14:21:07.748Z,98721.09
2022-12-11T14:23:37.039Z,98727.03
2022-12-11T14:26:16.402Z,98730.69
2022-12-11T14:28:46.100Z,98738.66
2022-12-11T14:31:18.642Z,98738.53
2022-12-11T14:33:50.413Z,98743.00
2022-12-11T14:36:19.145Z,98746.66
2022-12-11T14:38:50.868Z,98752.31
2022-12-11T14:41:22.790Z,98751.56
2022-12-11T14:43:56.402Z,98748.56
2022-12-11T14:46:27.885Z,98760.66
2022-12-11T14:49:01.046Z,98764.28
2022-12-11T14:51:36.111Z,98767.91
2022-12-11T14:54:05.691Z,98767.66
2022-12-11T14:56:34.914Z,98760.16
2022-12-11T14:59:09.185Z,98758.59
2022-12-11T15:01:39.324Z,98761.03
2022-12-11T15:04:23.285Z,98761.69
2022-12-11T15:06:52.895Z,98774.44
2022-12-11T15:09:25.764Z,98779.16
2022-12-11T15:11:56.699Z,98773.38
2022-12-11T15:14:27.876Z,98773.88
2022-12-11T15:16:58.657Z,98780.44
2022-12-11T15:19:31.459Z,98780.19
2022-12-11T15:22:05.009Z,98781.38
2022-12-11T15:24:36.681Z,98784.03
2022-12-11T15:27:06.863Z,98786.69
2022-12-11T15:29:38.789Z,98780.72
2022-12-11T15:32:19.748Z,98791.38
2022-12-11T15:34:50.198Z,98793.59
2022-12-11T15:37:20.249Z,98801.38
2022-12-11T15:39:49.462Z,98801.06
2022-12-11T15:42:23.946Z,98793.19
2022-12-11T15:44:55.422Z,98791.22
2022-12-11T15:47:25.542Z,98796.84
2022-12-11T15:49:56.601Z,98789.78
2022-12-11T15:52:25.155Z,98798.16
2022-12-11T15:54:53.257Z,98802.66
2022-12-11T15:57:23.455Z,98797.94
2022-12-11T15:59:56.307Z,98802.22
2022-12-11T16:02:26.763Z,98800.53
2022-12-11T16:04:55.072Z,98806.34
2022-12-11T16:07:26.247Z,98804.63
2022-12-11T16:09:54.804Z,98810.94
2022-12-11T16:12:23.244Z,98812.16
2022-12-11T16:14:51.237Z,98823.94
2022-12-11T16:17:21.125Z,98835.44
2022-12-11T16:19:49.554Z,98830.81
2022-12-11T16:22:18.116Z,98830.81
2022-12-11T16:24:46.112Z,98836.16
2022-12-11T16:27:17.301Z,98830.22
2022-12-11T16:29:49.032Z,98828.72
2022-12-11T16:32:17.087Z,98831.66
2022-12-11T16:34:47.069Z,98834.81
2022-12-11T16:37:15.309Z,98838.44
2022-12-11T16:39:45.975Z,98836.16
2022-12-11T16:42:15.260Z,98843.41
2022-12-11T16:44:44.522Z,98860.63
2022-12-11T16:47:12.749Z,98854.56
2022-12-11T16:49:42.129Z,98857.47
2022-12-11T16:52:18.993Z,98862.06
2022-12-11T16:54:49.930Z,98858.69
2022-12-11T16:57:18.246Z,98853.34
2022-12-11T16:59:46.322Z,98845.63
2022-12-11T17:02:14.603Z,98858.94
2022-12-11T17:04:43.429Z,98852.91
2022-12-11T17:07:13.172Z,98849.25
2022-12-11T17:09:41.255Z,98853.84
2022-12-11T17:12:10.195Z,98857.34
2022-12-11T17:14:38.325Z,98845.38
2022-12-11T17:17:06.488Z,98844.16
2022-12-11T17:19:34.788Z,98849.25
2022-12-11T17:22:03.567Z,98843.69
2022-12-11T17:24:33.639Z,98862.19
2022-12-11T17:27:01.663Z,98850.97
2022-12-11T17:29:30.662Z,98854.69
2022-12-11T17:31:58.858Z,98855.66
2022-12-11T17:34:26.946Z,98856.28
2022-12-11T17:36:55.034Z,98860.75
2022-12-11T17:39:23.817Z,98868.63
2022-12-11T17:41:53.740Z,98855.53
2022-12-11T17:44:21.890Z,98858.19
2022-12-11T17:46:50.288Z,98862.94
2022-12-11T17:49:18.472Z,98869.34
2022-12-11T17:51:55.696Z,98863.19
2022-12-11T17:54:24.673Z,98858.91
2022-12-11T17:56:54.106Z,98869.56
2022-12-11T17:59:22.552Z,98853.84
2022-12-11T18:01:50.893Z,98859.28
2022-12-11T18:04:19.027Z,98850.72
2022-12-11T18:06:47.172Z,98859.75
2022-12-11T18:09:15.271Z,98865.94
2022-12-11T18:11:43.453Z,98864.34
2022-12-11T18:14:17.209Z,98864.47
2022-12-11T18:16:45.714Z,98875.97
2022-12-11T18:19:13.860Z,98872.47
2022-12-11T18:21:43.794Z,98880.31
2022-12-11T18:24:12.931Z,98881.19
2022-12-11T18:26:42.808Z,98885.66
2022-12-11T18:29:12.637Z,98884.81
2022-12-11T18:31:42.881Z,98888.44
2022-12-11T18:34:12.106Z,98886.75
2022-12-11T18:36:41.442Z,98892.19
2022-12-11T18:39:09.557Z,98885.28
2022-12-11T18:41:37.716Z,98887.94
2022-12-11T18:44:10.023Z,98889.03
2022-12-11T18:46:40.004Z,98904.88
2022-12-11T18:49:08.616Z,98907.53
2022-12-11T18:51:37.338Z,98903.19
2022-12-11T18:54:05.558Z,98912.13
2022-12-11T18:56:33.864Z,98902.44
2022-12-11T18:59:02.339Z,98900.41
2022-12-11T19:01:33.059Z,98905.50
2022-12-11T19:04:06.664Z,98905.25
2022-12-11T19:06:38.583Z,98904.16
2022-12-11T19:09:08.905Z,98918.19
2022-12-11T19:11:39.642Z,98919.16
2022-12-11T19:14:08.578Z,98919.28
2022-12-11T19:16:38.426Z,98923.66
2022-12-11T19:19:10.845Z,98918.19
2022-12-11T19:21:40.068Z,98929.09
2022-12-11T19:24:10.439Z,98929.75
2022-12-11T19:26:38.724Z,98918.72
2022-12-11T19:29:07.819Z,98924.88
2022-12-11T19:31:36.297Z,98932.75
2022-12-11T19:34:04.607Z,98929.13
2022-12-11T19:36:35.079Z,98929.25
2022-12-11T19:39:07.076Z,98927.69
2022-12-11T19:41:38.138Z,98920.06
2022-12-11T19:44:06.734Z,98930.81
2022-12-11T19:46:35.059Z,98930.91
2022-12-11T19:49:03.512Z,98932.84
2022-12-11T19:51:36.486Z,98930.31
2022-12-11T19:54:05.184Z,98934.06
2022-12-11T19:56:36.618Z,98924.41
2022-12-11T19:59:06.140Z,98938.66
2022-12-11T20:01:37.010Z,98938.28
2022-12-11T20:04:07.950Z,98945.06
2022-12-11T20:06:39.278Z,98937.31
2022-12-11T20:09:10.924Z,98937.31
2022-12-11T20:11:41.008Z,98935.63
2022-12-11T20:14:09.331Z,98941.91
2022-12-11T20:19:26.724Z,98958.88
2022-12-11T20:21:56.944Z,98950.19
2022-12-11T20:24:25.098Z,98946.06
2022-12-11T20:26:54.287Z,98953.84
2022-12-11T20:29:22.359Z,98955.28
2022-12-11T20:31:51.225Z,98954.81
2022-12-11T20:34:19.992Z,98949.88
2022-12-11T20:36:48.946Z,98953.38
2022-12-11T20:39:18.574Z,98960.63
2022-12-11T20:41:47.179Z,98958.22
2022-12-11T20:44:15.828Z,98948.78
2022-12-11T20:46:43.969Z,98954.56
2022-12-11T20:49:13.189Z,98960.16
2022-12-11T20:51:41.944Z,98957.94
2022-12-11T20:54:10.119Z,98959.88
2022-12-11T20:56:39.947Z,98966.41
2022-12-11T20:59:08.832Z,98966.66
2022-12-11T21:01:36.864Z,98961.56
2022-12-11T21:04:05.084Z,98966.25
2022-12-11T21:06:35.498Z,98961.06
2022-12-11T21:09:06.032Z,98974.72
2022-12-11T21:11:34.322Z,98967.84
2022-12-11T21:14:04.788Z,98968.03
2022-12-11T21:16:33.882Z,98981.59
2022-12-11T21:19:02.769Z,98971.28
2022-12-11T21:21:33.325Z,98983.03
2022-12-11T21:24:01.385Z,98990.28
2022-12-11T21:26:29.529Z,99001.03
2022-12-11T21:28:57.780Z,99001.16
2022-12-11T21:31:28.968Z,99005.97
2022-12-11T21:33:57.183Z,99019.28
2022-12-11T21:36:25.540Z,99015.88
2022-12-11T21:38:53.849Z,99023.13
2022-12-11T21:41:24.638Z,99027.72
2022-12-11T21:46:45.075Z,99035.91
2022-12-11T21:49:13.209Z,99037.84
2022-12-11T21:51:47.148Z,99026.34
2022-12-11T21:54:17.487Z,99021.28
2022-12-11T21:56:46.244Z,99008.38
2022-12-11T21:59:14.986Z,99020.50
2022-12-11T22:01:46.641Z,99028.63
2022-12-11T22:04:16.159Z,99042.16
2022-12-11T22:06:47.303Z,99039.59
2022-12-11T22:09:17.837Z,99040.69
2022-12-11T22:11:47.472Z,99034.50
2022-12-11T22:14:17.583Z,99039.06
2022-12-11T22:16:47.419Z,99049.34
2022-12-11T22:19:15.700Z,99052.63
2022-12-11T22:21:44.169Z,99053.69
2022-12-11T22:24:12.324Z,99045.91
2022-12-11T22:26:40.896Z,99053.88
2022-12-11T22:29:09.250Z,99055.81
2022-12-11T22:31:37.222Z,99048.81
2022-12-11T22:34:06.709Z,99040.09
2022-12-11T22:36:34.819Z,99039.38
2022-12-11T22:39:02.975Z,99044.16
2022-12-11T22:41:33.222Z,99043.91
2022-12-11T22:44:02.235Z,99035.22
2022-12-11T22:46:31.439Z,99030.84
2022-12-11T22:49:00.142Z,99053.09
2022-12-11T22:51:29.532Z,99054.16
2022-12-11T22:53:58.545Z,99048.84
2022-12-11T22:56:26.638Z,99051.63
2022-12-11T22:58:54.801Z,99050.78
2022-12-11T23:01:24.700Z,99052.56
2022-12-11T23:03:53.630Z,99058.09
2022-12-11T23:06:24.751Z,99062.56
2022-12-11T23:08:57.773Z,99066.94
2022-12-11T23:11:28.885Z,99068.00
2022-12-11T23:13:58.066Z,99071.63
2022-12-11T23:16:27.398Z,99073.56
2022-12-11T23:18:56.110Z,99080.75
2022-12-11T23:21:26.372Z,99071.09
2022-12-11T23:23:56.715Z,99068.44
2022-12-11T23:26:28.693Z,99066.00
2022-12-11T23:28:58.184Z,99068.66
2022-12-11T23:31:27.400Z,99066.97
2022-12-11T23:33:55.902Z,99066.97
2022-12-11T23:36:25.348Z,99061.75
2022-12-11T23:38:55.945Z,99055.78
2022-12-11T23:41:24.683Z,99062.81
2022-12-11T23:43:52.775Z,99060.16
2022-12-11T23:46:22.520Z,99073.44
2022-12-11T23:48:51.828Z,99056.75
2022-12-11T23:51:21.614Z,99057.72
2022-12-11T23:53:49.983Z,99061.44
2022-12-11T23:56:22.234Z,99064.00
2022-12-11T23:58:50.983Z,99058.91
